createdAt,value
2022-08-17T00:00:34.229Z,20.15
2022-08-17T00:03:03.769Z,18.00
2022-08-17T00:05:36.675Z,18.30
2022-08-17T00:08:04.774Z,25.52
2022-08-17T00:10:32.450Z,18.90
2022-08-17T00:12:59.971Z,19.40
2022-08-17T00:15:27.117Z,18.38
2022-08-17T00:17:54.079Z,18.00
2022-08-17T00:20:30.384Z,18.70
2022-08-17T00:23:08.084Z,17.48
2022-08-17T00:25:35.185Z,17.50
2022-08-17T00:28:02.244Z,18.83
2022-08-17T00:30:29.907Z,19.30
2022-08-17T00:33:18.415Z,20.92
2022-08-17T00:35:47.647Z,18.58
2022-08-17T00:38:15.815Z,19.88
2022-08-17T00:40:55.863Z,20.55
2022-08-17T00:43:39.956Z,21.48
2022-08-17T00:46:19.765Z,21.13
2022-08-17T00:48:47.194Z,20.92
2022-08-17T00:51:17.072Z,22.77
2022-08-17T00:53:49.877Z,22.80
2022-08-17T00:58:54.989Z,22.75
2022-08-17T01:01:22.973Z,21.00
2022-08-17T01:03:53.411Z,25.02
2022-08-17T01:06:26.054Z,24.10
2022-08-17T01:08:57.604Z,23.63
2022-08-17T01:11:25.711Z,24.35
2022-08-17T01:13:52.768Z,22.52
2022-08-17T01:16:26.687Z,22.25
2022-08-17T01:18:58.520Z,29.30
2022-08-17T01:21:57.908Z,26.83
2022-08-17T01:24:27.718Z,22.77
2022-08-17T01:26:56.681Z,24.85
2022-08-17T01:29:27.091Z,25.90
2022-08-17T01:31:56.849Z,27.00
2022-08-17T01:34:31.581Z,24.50
2022-08-17T01:37:09.910Z,26.17
2022-08-17T01:39:43.637Z,23.52
2022-08-17T01:42:37.485Z,24.02
2022-08-17T01:45:32.034Z,30.70
2022-08-17T01:47:59.534Z,27.63
2022-08-17T01:50:29.859Z,26.02
2022-08-17T01:53:02.051Z,27.58
2022-08-17T01:55:47.275Z,27.15
2022-08-17T01:58:14.250Z,28.17
2022-08-17T02:00:59.579Z,26.10
2022-08-17T02:03:30.109Z,30.23
2022-08-17T02:05:57.031Z,31.23
2022-08-17T02:08:39.025Z,28.05
2022-08-17T02:11:19.375Z,27.92
2022-08-17T02:13:49.672Z,26.08
2022-08-17T02:16:25.410Z,26.88
2022-08-17T02:18:52.363Z,29.15
2022-08-17T02:21:20.070Z,26.30
2022-08-17T02:23:48.320Z,26.63
2022-08-17T02:26:24.041Z,29.63
2022-08-17T02:28:53.591Z,28.85
2022-08-17T02:31:21.357Z,29.27
2022-08-17T02:34:03.401Z,30.52
2022-08-17T02:36:36.247Z,26.90
2022-08-17T02:39:06.162Z,27.38
2022-08-17T02:41:33.539Z,28.48
2022-08-17T02:44:01.709Z,27.05
2022-08-17T02:46:30.385Z,29.23
2022-08-17T02:48:57.922Z,26.35
2022-08-17T02:51:25.715Z,24.92
2022-08-17T02:53:53.016Z,28.75
2022-08-17T02:56:39.865Z,24.92
2022-08-17T02:59:06.841Z,24.73
2022-08-17T03:01:50.508Z,31.45
2022-08-17T03:04:17.400Z,31.60
2022-08-17T03:06:44.347Z,27.80
2022-08-17T03:09:11.268Z,29.38
2022-08-17T03:11:38.185Z,27.83
2022-08-17T03:14:05.209Z,28.25
2022-08-17T03:16:32.080Z,35.72
2022-08-17T03:19:00.354Z,31.70
2022-08-17T03:21:27.302Z,31.23
2022-08-17T03:23:54.626Z,29.63
2022-08-17T03:26:21.844Z,36.83
2022-08-17T03:28:48.962Z,28.67
2022-08-17T03:31:16.206Z,33.35
2022-08-17T03:33:43.036Z,31.83
2022-08-17T03:36:10.350Z,32.80
2022-08-17T03:38:38.890Z,33.90
2022-08-17T03:41:07.613Z,33.45
2022-08-17T03:43:34.819Z,36.08
2022-08-17T03:46:27.963Z,30.63
2022-08-17T03:49:19.359Z,33.90
2022-08-17T03:52:04.763Z,32.90
2022-08-17T03:54:50.327Z,33.33
2022-08-17T03:57:18.477Z,33.50
2022-08-17T03:59:45.418Z,32.05
2022-08-17T04:02:25.763Z,34.97
2022-08-17T04:04:53.874Z,35.80
2022-08-17T04:07:22.413Z,39.53
2022-08-17T04:09:49.396Z,35.25
2022-08-17T04:12:22.608Z,36.53
2022-08-17T04:14:53.029Z,45.10
2022-08-17T04:17:24.412Z,43.67
2022-08-17T04:19:51.595Z,47.75
2022-08-17T04:22:30.534Z,49.75
2022-08-17T04:25:03.762Z,44.22
2022-08-17T04:27:30.798Z,40.13
2022-08-17T04:29:58.701Z,44.70
2022-08-17T04:33:04.252Z,46.95
2022-08-17T04:35:23.024Z,45.75
2022-08-17T04:37:50.623Z,43.13
2022-08-17T04:40:41.046Z,42.58
2022-08-17T04:43:20.843Z,42.65
2022-08-17T04:45:57.541Z,42.13
2022-08-17T04:48:36.420Z,46.22
2022-08-17T04:51:07.616Z,42.13
2022-08-17T04:53:34.696Z,43.03
2022-08-17T04:56:01.649Z,39.65
2022-08-17T04:58:28.696Z,39.22
2022-08-17T05:00:55.624Z,40.70
2022-08-17T05:03:22.525Z,41.00
2022-08-17T05:05:49.883Z,39.00
2022-08-17T05:08:19.321Z,35.72
2022-08-17T05:10:47.881Z,39.70
2022-08-17T05:13:23.870Z,39.00
2022-08-17T05:15:56.236Z,41.10
2022-08-17T05:18:24.449Z,43.35
2022-08-17T05:20:52.467Z,39.60
2022-08-17T05:23:22.007Z,45.00
2022-08-17T05:25:51.910Z,47.00
2022-08-17T05:28:24.140Z,44.20
2022-08-17T05:30:56.888Z,44.50
2022-08-17T05:33:28.079Z,48.72
2022-08-17T05:35:57.513Z,44.80
2022-08-17T05:38:26.677Z,44.80
2022-08-17T05:40:55.057Z,47.60
2022-08-17T05:43:27.573Z,46.95
2022-08-17T05:46:20.893Z,39.72
2022-08-17T05:48:51.127Z,50.60
2022-08-17T05:51:53.736Z,43.85
2022-08-17T05:54:42.363Z,41.33
2022-08-17T05:57:30.922Z,40.95
2022-08-17T06:00:06.246Z,40.20
2022-08-17T06:03:00.444Z,43.67
2022-08-17T06:05:33.870Z,38.70
2022-08-17T06:08:16.285Z,38.83
2022-08-17T06:11:02.508Z,41.55
2022-08-17T06:13:45.407Z,40.33
2022-08-17T06:19:23.154Z,40.10
2022-08-17T06:21:54.208Z,39.97
2022-08-17T06:24:37.860Z,38.47
2022-08-17T06:27:23.149Z,39.65
2022-08-17T06:30:18.867Z,41.20
2022-08-17T06:32:49.030Z,37.75
2022-08-17T06:35:42.348Z,41.35
2022-08-17T06:38:45.805Z,39.70
2022-08-17T06:41:26.143Z,35.50
2022-08-17T06:44:08.603Z,34.95
2022-08-17T06:46:48.500Z,39.03
2022-08-17T06:49:28.632Z,37.83
2022-08-17T06:52:03.452Z,36.25
2022-08-17T06:55:00.307Z,39.55
2022-08-17T06:57:35.656Z,43.55
2022-08-17T07:00:17.088Z,42.08
2022-08-17T07:03:09.704Z,38.83
2022-08-17T07:06:00.286Z,38.45
2022-08-17T07:08:46.344Z,32.38
2022-08-17T07:11:32.126Z,39.00
2022-08-17T07:14:25.122Z,36.08
2022-08-17T07:16:56.133Z,42.92
2022-08-17T07:19:27.475Z,37.85
2022-08-17T07:22:10.726Z,38.83
2022-08-17T07:24:43.294Z,34.92
2022-08-17T07:27:23.562Z,33.92
2022-08-17T07:30:04.684Z,32.25
2022-08-17T07:32:48.821Z,30.92
2022-08-17T07:35:41.372Z,35.63
2022-08-17T07:38:24.638Z,34.10
2022-08-17T07:41:07.805Z,36.95
2022-08-17T07:43:46.533Z,36.55
2022-08-17T07:46:47.425Z,31.35
2022-08-17T07:49:14.268Z,27.88
2022-08-17T07:51:44.229Z,27.20
2022-08-17T07:54:23.031Z,36.60
2022-08-17T07:56:55.957Z,30.45
2022-08-17T07:59:36.419Z,31.35
2022-08-17T08:02:06.728Z,27.55
2022-08-17T08:05:00.522Z,22.42
2022-08-17T08:07:34.834Z,24.67
2022-08-17T08:10:15.226Z,20.55
2022-08-17T08:12:48.879Z,24.95
2022-08-17T08:15:33.229Z,26.67
2022-08-17T08:18:03.411Z,26.85
2022-08-17T08:20:51.792Z,22.33
2022-08-17T08:23:26.570Z,23.23
2022-08-17T08:26:28.438Z,21.65
2022-08-17T08:29:18.214Z,25.90
2022-08-17T08:32:03.913Z,18.58
2022-08-17T08:35:01.827Z,16.50
2022-08-17T08:37:43.383Z,21.55
2022-08-17T08:40:29.891Z,22.13
2022-08-17T08:43:16.701Z,23.65
2022-08-17T08:46:19.663Z,19.75
2022-08-17T08:49:26.277Z,14.85
2022-08-17T08:52:31.364Z,15.05
2022-08-17T08:55:09.066Z,15.65
2022-08-17T08:57:50.048Z,15.60
2022-08-17T09:00:23.812Z,13.00
2022-08-17T09:03:12.390Z,11.50
2022-08-17T09:05:56.478Z,12.43
2022-08-17T09:08:35.673Z,11.57
2022-08-17T09:11:22.020Z,13.43
2022-08-17T09:13:55.580Z,14.23
2022-08-17T09:16:33.996Z,13.25
2022-08-17T09:19:43.901Z,13.75
2022-08-17T09:22:17.763Z,11.98
2022-08-17T09:24:57.146Z,17.20
2022-08-17T09:27:32.153Z,9.70
2022-08-17T09:30:08.499Z,10.80
2022-08-17T09:32:50.022Z,14.52
2022-08-17T09:35:32.968Z,10.23
2022-08-17T09:38:16.348Z,9.93
2022-08-17T09:40:57.492Z,13.82
2022-08-17T09:43:54.428Z,9.43
2022-08-17T09:46:36.010Z,6.82
2022-08-17T09:49:28.377Z,7.90
2022-08-17T09:52:05.753Z,6.20
2022-08-17T09:54:39.665Z,7.88
2022-08-17T09:57:32.139Z,9.20
2022-08-17T10:00:25.864Z,7.38
2022-08-17T10:03:00.756Z,9.07
2022-08-17T10:05:37.587Z,7.43
2022-08-17T10:08:21.826Z,7.13
2022-08-17T10:10:58.989Z,6.82
2022-08-17T10:13:52.738Z,11.15
2022-08-17T10:16:45.456Z,12.57
2022-08-17T10:19:23.470Z,9.55
2022-08-17T10:22:34.642Z,10.13
2022-08-17T10:25:30.212Z,8.80
2022-08-17T10:28:19.965Z,8.63
2022-08-17T10:31:16.572Z,7.25
2022-08-17T10:34:07.747Z,9.57
2022-08-17T10:36:38.912Z,11.83
2022-08-17T10:39:11.502Z,8.70
2022-08-17T10:41:47.770Z,9.07
2022-08-17T10:44:37.334Z,9.60
2022-08-17T10:47:12.713Z,12.63
2022-08-17T10:49:48.062Z,8.48
2022-08-17T10:52:26.223Z,13.57
2022-08-17T10:54:58.737Z,7.78
2022-08-17T10:57:42.035Z,5.80
2022-08-17T11:00:42.070Z,7.10
2022-08-17T11:03:21.526Z,6.47
2022-08-17T11:05:54.058Z,7.72
2022-08-17T11:11:25.510Z,8.65
2022-08-17T11:14:24.106Z,9.70
2022-08-17T11:17:09.788Z,6.43
2022-08-17T11:20:01.550Z,8.27
2022-08-17T11:22:45.112Z,8.05
2022-08-17T11:25:21.245Z,7.10
2022-08-17T11:28:07.366Z,8.15
2022-08-17T11:30:53.181Z,8.55
2022-08-17T11:33:42.425Z,8.57
2022-08-17T11:36:26.410Z,8.35
2022-08-17T11:38:58.172Z,7.45
2022-08-17T11:41:42.956Z,7.75
2022-08-17T11:44:21.154Z,7.15
2022-08-17T11:47:32.603Z,6.25
2022-08-17T11:50:50.581Z,8.70
2022-08-17T11:53:41.010Z,9.48
2022-08-17T11:56:11.598Z,6.68
2022-08-17T11:58:42.965Z,10.77
2022-08-17T12:01:16.216Z,7.35
2022-08-17T12:06:42.170Z,9.05
2022-08-17T12:09:30.390Z,6.57
2022-08-17T12:12:12.524Z,6.82
2022-08-17T12:17:40.863Z,7.38
2022-08-17T12:20:37.791Z,8.15
2022-08-17T12:23:22.414Z,8.10
2022-08-17T12:25:57.863Z,5.57
2022-08-17T12:28:28.305Z,5.95
2022-08-17T12:31:02.676Z,7.78
2022-08-17T12:33:30.550Z,5.25
2022-08-17T12:36:04.934Z,7.00
2022-08-17T12:38:35.162Z,6.45
2022-08-17T12:41:24.335Z,6.57
2022-08-17T12:44:02.374Z,8.85
2022-08-17T12:46:33.660Z,8.48
2022-08-17T12:49:26.588Z,6.35
2022-08-17T12:54:37.144Z,5.57
2022-08-17T12:57:12.074Z,7.25
2022-08-17T12:59:48.770Z,5.97
2022-08-17T13:02:38.161Z,11.82
2022-08-17T13:05:07.096Z,8.70
2022-08-17T13:07:42.382Z,6.93
2022-08-17T13:10:42.169Z,9.50
2022-08-17T13:13:22.647Z,6.22
2022-08-17T13:16:14.441Z,9.10
2022-08-17T13:18:47.209Z,7.95
2022-08-17T13:21:30.382Z,6.25
2022-08-17T13:24:17.565Z,5.32
2022-08-17T13:26:51.514Z,9.77
2022-08-17T13:29:51.481Z,8.25
2022-08-17T13:32:27.438Z,8.63
2022-08-17T13:35:14.931Z,12.73
2022-08-17T13:38:01.435Z,8.48
2022-08-17T13:40:37.890Z,8.43
2022-08-17T13:43:05.541Z,5.30
2022-08-17T13:45:43.511Z,5.22
2022-08-17T13:48:23.223Z,6.90
2022-08-17T13:50:56.616Z,6.03
2022-08-17T13:53:37.541Z,4.93
2022-08-17T13:56:37.605Z,9.55
2022-08-17T13:59:53.326Z,6.45
2022-08-17T14:02:12.838Z,5.60
2022-08-17T14:04:42.313Z,6.20
2022-08-17T14:07:09.676Z,6.40
2022-08-17T14:09:38.199Z,6.38
2022-08-17T14:12:15.387Z,8.50
2022-08-17T14:14:43.039Z,9.63
2022-08-17T14:17:11.390Z,9.27
2022-08-17T14:19:38.519Z,6.35
2022-08-17T14:22:12.189Z,8.00
2022-08-17T14:24:44.589Z,6.90
2022-08-17T14:27:12.881Z,5.03
2022-08-17T14:29:42.080Z,6.10
2022-08-17T14:32:24.073Z,9.82
2022-08-17T14:34:52.023Z,9.85
2022-08-17T14:37:20.891Z,9.25
2022-08-17T14:39:48.362Z,6.95
2022-08-17T14:42:17.577Z,13.63
2022-08-17T14:44:45.115Z,8.98
2022-08-17T14:47:14.944Z,7.93
2022-08-17T14:49:42.288Z,12.60
2022-08-17T14:52:12.456Z,6.88
2022-08-17T14:54:45.135Z,9.73
2022-08-17T14:57:33.393Z,6.10
2022-08-17T15:00:00.295Z,6.95
2022-08-17T15:02:29.738Z,6.60
2022-08-17T15:05:04.186Z,6.25
2022-08-17T15:07:31.742Z,6.40
2022-08-17T15:10:01.500Z,7.00
2022-08-17T15:12:33.063Z,8.30
2022-08-17T15:15:06.409Z,6.18
2022-08-17T15:20:27.595Z,8.98
2022-08-17T15:22:56.047Z,7.00
2022-08-17T15:25:25.796Z,6.32
2022-08-17T15:27:53.756Z,6.75
2022-08-17T15:30:21.103Z,7.18
2022-08-17T15:32:53.193Z,8.02
2022-08-17T15:35:28.109Z,6.57
2022-08-17T15:38:11.565Z,5.95
2022-08-17T15:40:46.283Z,6.18
2022-08-17T15:43:19.295Z,9.57
2022-08-17T15:45:58.792Z,10.15
2022-08-17T15:48:41.630Z,8.07
2022-08-17T15:51:21.297Z,9.70
2022-08-17T15:53:52.014Z,10.70
2022-08-17T15:56:19.692Z,9.35
2022-08-17T15:58:47.969Z,10.85
2022-08-17T16:01:18.445Z,7.10
2022-08-17T16:04:11.094Z,7.90
2022-08-17T16:06:52.061Z,7.35
2022-08-17T16:09:19.150Z,8.73
2022-08-17T16:11:46.066Z,7.90
2022-08-17T16:14:20.738Z,6.82
2022-08-17T16:16:47.757Z,9.65
2022-08-17T16:19:14.880Z,7.80
2022-08-17T16:21:43.087Z,9.27
2022-08-17T16:24:12.686Z,12.02
2022-08-17T16:26:40.939Z,10.07
2022-08-17T16:29:08.638Z,13.00
2022-08-17T16:31:37.810Z,9.30
2022-08-17T16:34:16.796Z,12.52
2022-08-17T16:36:54.922Z,9.65
2022-08-17T16:39:32.990Z,11.80
2022-08-17T16:42:01.951Z,9.95
2022-08-17T16:44:30.668Z,12.45
2022-08-17T16:47:01.304Z,8.93
2022-08-17T16:49:36.714Z,7.97
2022-08-17T16:52:07.498Z,9.10
2022-08-17T16:54:35.690Z,10.35
2022-08-17T16:57:05.259Z,17.95
2022-08-17T16:59:42.220Z,20.17
2022-08-17T17:02:15.034Z,12.73
2022-08-17T17:05:01.111Z,11.88
2022-08-17T17:07:52.471Z,9.57
2022-08-17T17:10:24.560Z,10.35
2022-08-17T17:13:01.161Z,8.93
2022-08-17T17:15:53.561Z,7.72
2022-08-17T17:18:32.114Z,9.82
2022-08-17T17:21:00.430Z,8.85
2022-08-17T17:23:52.589Z,8.48
2022-08-17T17:26:45.594Z,12.88
2022-08-17T17:29:27.784Z,10.07
2022-08-17T17:32:25.519Z,8.77
2022-08-17T17:35:00.472Z,8.73
2022-08-17T17:37:32.635Z,9.73
2022-08-17T17:40:21.635Z,8.77
2022-08-17T17:42:52.672Z,7.30
2022-08-17T17:45:26.329Z,7.13
2022-08-17T17:47:53.511Z,11.52
2022-08-17T17:50:33.070Z,8.45
2022-08-17T17:53:08.966Z,10.98
2022-08-17T17:55:41.859Z,8.38
2022-08-17T17:58:38.099Z,9.77
2022-08-17T18:01:28.942Z,12.95
2022-08-17T18:04:20.708Z,7.28
2022-08-17T18:07:10.151Z,9.25
2022-08-17T18:10:29.424Z,12.60
2022-08-17T18:13:29.917Z,10.93
2022-08-17T18:16:00.699Z,11.05
2022-08-17T18:18:47.842Z,10.55
2022-08-17T18:21:22.484Z,9.38
2022-08-17T18:23:59.428Z,23.67
2022-08-17T18:26:56.733Z,8.90
2022-08-17T18:29:24.298Z,13.27
2022-08-17T18:32:15.451Z,14.10
2022-08-17T18:34:48.712Z,10.63
2022-08-17T18:37:39.631Z,18.25
2022-08-17T18:40:30.811Z,9.65
2022-08-17T18:43:00.587Z,10.15
2022-08-17T18:45:38.262Z,8.30
2022-08-17T18:48:17.941Z,8.50
2022-08-17T18:50:45.778Z,8.70
2022-08-17T18:53:36.141Z,7.57
2022-08-17T18:56:24.004Z,5.25
2022-08-17T18:59:00.195Z,7.65
2022-08-17T19:01:54.572Z,8.02
2022-08-17T19:04:37.119Z,8.90
2022-08-17T19:07:19.157Z,7.90
2022-08-17T19:09:51.982Z,7.53
2022-08-17T19:12:27.748Z,8.25
2022-08-17T19:14:57.035Z,5.10
2022-08-17T19:17:45.656Z,6.18
2022-08-17T19:20:19.649Z,6.72
2022-08-17T19:22:47.406Z,7.05
2022-08-17T19:25:23.040Z,6.72
2022-08-17T19:28:22.185Z,4.95
2022-08-17T19:30:55.758Z,6.55
2022-08-17T19:33:23.418Z,13.63
2022-08-17T19:36:08.137Z,9.23
2022-08-17T19:38:35.107Z,8.48
2022-08-17T19:41:19.311Z,8.98
2022-08-17T19:44:12.221Z,10.90
2022-08-17T19:47:30.543Z,10.48
2022-08-17T19:50:16.381Z,8.50
2022-08-17T19:52:55.241Z,9.18
2022-08-17T19:55:22.727Z,8.80
2022-08-17T19:58:06.878Z,11.77
2022-08-17T20:00:41.456Z,8.45
2022-08-17T20:03:16.552Z,9.20
2022-08-17T20:06:12.009Z,9.65
2022-08-17T20:09:00.357Z,12.55
2022-08-17T20:11:55.043Z,8.60
2022-08-17T20:14:30.862Z,8.48
2022-08-17T20:17:02.466Z,9.93
2022-08-17T20:19:41.153Z,8.57
2022-08-17T20:22:28.936Z,8.88
2022-08-17T20:25:29.923Z,8.60
2022-08-17T20:28:15.398Z,9.10
2022-08-17T20:30:43.938Z,11.73
2022-08-17T20:33:26.334Z,9.13
2022-08-17T20:36:04.817Z,11.75
2022-08-17T20:38:42.788Z,10.30
2022-08-17T20:41:15.879Z,12.00
2022-08-17T20:43:51.354Z,10.80
2022-08-17T20:46:57.163Z,10.98
2022-08-17T20:49:44.942Z,11.05
2022-08-17T20:52:18.972Z,9.75
2022-08-17T20:54:57.206Z,11.75
2022-08-17T20:57:36.806Z,10.95
2022-08-17T21:00:17.253Z,13.20
2022-08-17T21:03:12.092Z,9.48
2022-08-17T21:06:15.357Z,13.23
2022-08-17T21:09:19.129Z,10.45
2022-08-17T21:12:04.012Z,10.70
2022-08-17T21:14:59.807Z,10.13
2022-08-17T21:17:43.128Z,11.50
2022-08-17T21:20:32.830Z,9.63
2022-08-17T21:23:16.270Z,14.63
2022-08-17T21:26:02.476Z,10.05
2022-08-17T21:29:01.445Z,12.57
2022-08-17T21:31:46.408Z,10.80
2022-08-17T21:34:29.268Z,9.27
2022-08-17T21:37:19.032Z,13.02
2022-08-17T21:40:21.482Z,11.50
2022-08-17T21:42:53.947Z,11.32
2022-08-17T21:45:23.783Z,10.23
2022-08-17T21:48:15.614Z,9.70
2022-08-17T21:50:58.042Z,10.40
2022-08-17T21:53:40.508Z,10.75
2022-08-17T21:56:09.654Z,9.48
2022-08-17T21:58:40.580Z,9.75
2022-08-17T22:01:34.947Z,8.55
2022-08-17T22:04:05.817Z,10.05
2022-08-17T22:06:43.139Z,12.00
2022-08-17T22:09:53.403Z,12.38
2022-08-17T22:12:24.419Z,7.72
2022-08-17T22:14:57.459Z,9.55
2022-08-17T22:17:27.810Z,8.50
2022-08-17T22:20:15.883Z,10.00
2022-08-17T22:23:06.297Z,9.52
2022-08-17T22:25:55.839Z,9.02
2022-08-17T22:28:52.817Z,7.55
2022-08-17T22:31:26.145Z,8.18
2022-08-17T22:34:01.869Z,8.27
2022-08-17T22:36:36.830Z,9.70
2022-08-17T22:39:09.854Z,8.90
2022-08-17T22:41:54.332Z,10.23
2022-08-17T22:44:26.119Z,8.95
2022-08-17T22:47:11.320Z,8.07
2022-08-17T22:50:22.008Z,7.63
2022-08-17T22:53:15.795Z,7.57
2022-08-17T22:56:15.611Z,8.82
2022-08-17T22:59:16.933Z,8.35
2022-08-17T23:01:46.596Z,7.47
2022-08-17T23:04:51.371Z,12.23
2022-08-17T23:07:20.121Z,7.30
2022-08-17T23:09:47.249Z,8.68
2022-08-17T23:12:18.786Z,8.00
2022-08-17T23:14:47.030Z,8.52
2022-08-17T23:17:14.164Z,7.78
2022-08-17T23:19:41.342Z,8.50
2022-08-17T23:22:11.207Z,7.97
2022-08-17T23:24:43.405Z,11.25
2022-08-17T23:27:11.345Z,8.18
2022-08-17T23:29:42.317Z,8.57
2022-08-17T23:32:13.533Z,14.05
2022-08-17T23:34:42.183Z,9.18
2022-08-17T23:37:12.272Z,8.75
2022-08-17T23:39:40.580Z,9.68
2022-08-17T23:42:10.543Z,8.35
2022-08-17T23:44:38.914Z,9.32
2022-08-17T23:47:07.786Z,7.97
2022-08-17T23:49:36.147Z,8.77
2022-08-17T23:52:09.948Z,10.80
2022-08-17T23:54:44.317Z,8.35
2022-08-17T23:57:13.461Z,8.93
2022-08-17T23:59:40.933Z,9.95
